createdAt,value
2024-02-08T00:01:28.675Z,15.32
2024-02-08T00:03:55.864Z,19.27
2024-02-08T00:06:22.883Z,15.88
2024-02-08T00:08:54.724Z,18.73
2024-02-08T00:11:21.914Z,19.73
2024-02-08T00:13:49.872Z,13.63
2024-02-08T00:16:16.940Z,12.98
2024-02-08T00:18:45.674Z,16.45
2024-02-08T00:21:13.944Z,19.17
2024-02-08T00:23:40.935Z,14.45
2024-02-08T00:26:09.497Z,14.70
2024-02-08T00:28:36.561Z,16.67
2024-02-08T00:31:05.872Z,14.98
2024-02-08T00:33:35.082Z,18.80
2024-02-08T00:36:02.409Z,19.95
2024-02-08T00:38:32.722Z,13.88
2024-02-08T00:41:00.330Z,17.50
2024-02-08T00:43:29.206Z,18.98
2024-02-08T00:45:56.327Z,13.90
2024-02-08T00:48:23.711Z,11.57
2024-02-08T00:50:50.893Z,17.52
2024-02-08T00:53:17.899Z,15.90
2024-02-08T00:55:45.419Z,17.08
2024-02-08T00:58:16.701Z,13.50
2024-02-08T01:00:45.301Z,17.05
2024-02-08T01:03:14.841Z,15.95
2024-02-08T01:05:43.121Z,15.23
2024-02-08T01:08:10.486Z,14.40
2024-02-08T01:10:37.561Z,19.75
2024-02-08T01:13:05.837Z,24.25
2024-02-08T01:15:32.972Z,24.17
2024-02-08T01:18:04.144Z,39.63
2024-02-08T01:20:32.771Z,31.73
2024-02-08T01:23:00.958Z,22.52
2024-02-08T01:25:28.067Z,27.52
2024-02-08T01:27:57.112Z,23.38
2024-02-08T01:30:25.669Z,20.30
2024-02-08T01:32:54.612Z,17.55
2024-02-08T01:35:23.825Z,22.00
2024-02-08T01:37:51.206Z,17.80
2024-02-08T01:40:18.560Z,14.43
2024-02-08T01:42:45.945Z,17.70
2024-02-08T01:45:35.065Z,13.88
2024-02-08T01:48:04.562Z,12.57
2024-02-08T01:50:37.048Z,12.98
2024-02-08T01:53:06.639Z,14.27
2024-02-08T01:55:35.446Z,18.15
2024-02-08T01:58:06.672Z,14.02
2024-02-08T02:00:37.831Z,16.60
2024-02-08T02:03:11.537Z,13.05
2024-02-08T02:05:44.384Z,15.10
2024-02-08T02:08:12.298Z,13.45
2024-02-08T02:10:40.382Z,14.40
2024-02-08T02:13:10.614Z,13.48
2024-02-08T02:15:39.285Z,15.55
2024-02-08T02:18:11.407Z,15.05
2024-02-08T02:20:40.488Z,16.33
2024-02-08T02:23:11.038Z,16.67
2024-02-08T02:25:42.310Z,15.63
2024-02-08T02:28:11.600Z,16.98
2024-02-08T02:30:39.155Z,15.68
2024-02-08T02:33:07.409Z,13.10
2024-02-08T02:35:35.565Z,13.63
2024-02-08T02:38:04.553Z,13.20
2024-02-08T02:40:35.380Z,16.15
2024-02-08T02:43:11.130Z,11.48
2024-02-08T02:45:38.355Z,14.73
2024-02-08T02:48:06.171Z,14.98
2024-02-08T02:50:35.910Z,15.70
2024-02-08T02:53:03.135Z,14.68
2024-02-08T02:55:30.220Z,12.02
2024-02-08T02:57:58.995Z,14.38
2024-02-08T03:00:26.358Z,16.67
2024-02-08T03:02:55.988Z,12.07
2024-02-08T03:05:23.114Z,12.48
2024-02-08T03:07:50.745Z,12.95
2024-02-08T03:10:20.830Z,12.85
2024-02-08T03:12:48.854Z,13.07
2024-02-08T03:15:18.279Z,14.57
2024-02-08T03:17:47.170Z,17.63
2024-02-08T03:20:31.297Z,14.38
2024-02-08T03:22:58.806Z,11.95
2024-02-08T03:25:26.413Z,15.43
2024-02-08T03:27:53.968Z,18.92
2024-02-08T03:30:32.472Z,18.95
2024-02-08T03:33:00.281Z,14.75
2024-02-08T03:35:31.164Z,18.90
2024-02-08T03:38:02.130Z,13.50
2024-02-08T03:40:34.077Z,18.83
2024-02-08T03:43:01.934Z,11.80
2024-02-08T03:45:31.089Z,12.95
2024-02-08T03:47:59.665Z,14.25
2024-02-08T03:50:35.931Z,14.38
2024-02-08T03:53:06.122Z,10.40
2024-02-08T03:55:33.740Z,12.38
2024-02-08T03:58:01.809Z,11.23
2024-02-08T04:00:30.372Z,12.60
2024-02-08T04:02:58.510Z,14.23
2024-02-08T04:06:00.924Z,11.20
2024-02-08T04:08:28.401Z,10.65
2024-02-08T04:10:55.986Z,10.77
2024-02-08T04:13:41.716Z,11.57
2024-02-08T04:16:28.844Z,11.25
2024-02-08T04:19:15.196Z,11.50
2024-02-08T04:22:00.694Z,15.75
2024-02-08T04:24:45.920Z,15.40
2024-02-08T04:27:31.394Z,12.95
2024-02-08T04:30:16.691Z,14.15
2024-02-08T04:33:06.153Z,11.43
2024-02-08T04:35:51.532Z,13.75
2024-02-08T04:38:36.848Z,13.63
2024-02-08T04:41:22.776Z,16.85
2024-02-08T04:44:08.594Z,12.35
2024-02-08T04:49:41.241Z,13.65
2024-02-08T04:52:26.947Z,11.52
2024-02-08T04:54:53.953Z,12.77
2024-02-08T04:57:20.913Z,12.40
2024-02-08T04:59:49.307Z,18.15
2024-02-08T05:02:17.838Z,12.38
2024-02-08T05:04:50.257Z,16.88
2024-02-08T05:07:17.615Z,10.98
2024-02-08T05:09:44.795Z,14.85
2024-02-08T05:12:12.641Z,15.32
2024-02-08T05:14:40.157Z,18.40
2024-02-08T05:17:10.676Z,13.48
2024-02-08T05:19:44.998Z,14.85
2024-02-08T05:22:14.932Z,12.38
2024-02-08T05:24:42.536Z,10.80
2024-02-08T05:27:12.555Z,16.25
2024-02-08T05:29:42.429Z,13.48
2024-02-08T05:32:11.624Z,12.50
2024-02-08T05:34:40.742Z,11.75
2024-02-08T05:37:08.130Z,21.05
2024-02-08T05:39:37.627Z,11.93
2024-02-08T05:42:06.537Z,15.65
2024-02-08T05:44:34.263Z,19.33
2024-02-08T05:47:10.523Z,18.95
2024-02-08T05:49:39.221Z,11.60
2024-02-08T05:52:08.105Z,15.07
2024-02-08T05:54:38.657Z,14.07
2024-02-08T05:57:08.548Z,15.50
2024-02-08T05:59:39.155Z,17.13
2024-02-08T06:02:16.869Z,13.88
2024-02-08T06:04:52.242Z,14.40
2024-02-08T06:07:21.639Z,15.07
2024-02-08T06:09:56.623Z,12.65
2024-02-08T06:12:45.111Z,21.98
2024-02-08T06:15:22.674Z,17.23
2024-02-08T06:18:00.016Z,19.90
2024-02-08T06:20:44.985Z,16.48
2024-02-08T06:23:19.473Z,12.73
2024-02-08T06:29:06.737Z,13.80
2024-02-08T06:31:42.148Z,12.80
2024-02-08T06:34:29.577Z,15.05
2024-02-08T06:37:00.437Z,13.68
2024-02-08T06:39:36.653Z,15.82
2024-02-08T06:42:24.585Z,17.35
2024-02-08T06:45:14.331Z,17.65
2024-02-08T06:48:16.283Z,16.27
2024-02-08T06:51:02.562Z,16.65
2024-02-08T06:53:48.054Z,19.63
2024-02-08T06:56:33.795Z,27.13
2024-02-08T07:04:51.541Z,24.05
2024-02-08T07:07:37.279Z,14.13
2024-02-08T07:13:08.501Z,21.48
2024-02-08T07:15:55.452Z,27.60
2024-02-08T07:18:49.429Z,17.13
2024-02-08T07:21:40.777Z,18.17
2024-02-08T07:24:26.616Z,18.30
2024-02-08T07:27:11.990Z,16.83
2024-02-08T07:29:59.447Z,14.95
2024-02-08T07:32:46.745Z,14.57
2024-02-08T07:35:32.430Z,18.73
2024-02-08T07:38:02.585Z,14.50
2024-02-08T07:40:36.436Z,17.10
2024-02-08T07:43:16.856Z,16.03
2024-02-08T07:45:45.081Z,15.23
2024-02-08T07:48:15.112Z,21.83
2024-02-08T07:50:49.115Z,15.52
2024-02-08T07:53:35.565Z,14.18
2024-02-08T07:56:24.807Z,19.80
2024-02-08T07:58:54.402Z,12.77
2024-02-08T08:01:21.945Z,13.20
2024-02-08T08:03:51.107Z,18.33
2024-02-08T08:06:18.550Z,22.30
2024-02-08T08:08:56.198Z,14.88
2024-02-08T08:11:27.141Z,25.02
2024-02-08T08:13:56.913Z,38.90
2024-02-08T08:16:31.238Z,25.02
2024-02-08T08:19:09.215Z,34.88
2024-02-08T08:21:55.953Z,19.90
2024-02-08T08:24:29.609Z,20.92
2024-02-08T08:27:18.530Z,17.20
2024-02-08T08:29:45.666Z,13.40
2024-02-08T08:32:31.360Z,14.35
2024-02-08T08:35:19.626Z,15.20
2024-02-08T08:37:46.907Z,14.80
2024-02-08T08:40:33.586Z,12.23
2024-02-08T08:43:00.726Z,9.25
2024-02-08T08:45:30.563Z,9.85
2024-02-08T08:48:02.513Z,9.52
2024-02-08T08:50:32.477Z,10.90
2024-02-08T08:53:08.765Z,8.85
2024-02-08T08:55:40.850Z,11.25
2024-02-08T08:58:13.712Z,10.45
2024-02-08T09:00:47.522Z,10.00
2024-02-08T09:03:28.760Z,9.43
2024-02-08T09:06:00.428Z,11.00
2024-02-08T09:08:35.786Z,14.75
2024-02-08T09:11:07.657Z,10.32
2024-02-08T09:13:39.153Z,13.82
2024-02-08T09:16:25.739Z,6.60
2024-02-08T09:19:00.068Z,5.68
2024-02-08T09:21:33.579Z,7.30
2024-02-08T09:24:04.645Z,8.18
2024-02-08T09:26:49.875Z,6.93
2024-02-08T09:29:28.465Z,4.55
2024-02-08T09:32:00.872Z,7.68
2024-02-08T09:34:42.505Z,3.80
2024-02-08T09:37:12.070Z,5.75
2024-02-08T09:40:00.457Z,6.18
2024-02-08T09:42:29.216Z,5.25
2024-02-08T09:45:14.918Z,6.20
2024-02-08T09:47:53.151Z,8.60
2024-02-08T09:50:32.481Z,6.43
2024-02-08T09:53:08.740Z,5.93
2024-02-08T09:55:40.138Z,7.22
2024-02-08T09:58:11.830Z,6.03
2024-02-08T10:00:58.992Z,6.03
2024-02-08T10:03:33.577Z,6.07
2024-02-08T10:06:13.781Z,5.07
2024-02-08T10:08:58.000Z,6.68
2024-02-08T10:11:25.578Z,6.40
2024-02-08T10:14:25.152Z,3.42
2024-02-08T10:16:54.907Z,8.20
2024-02-08T10:19:27.620Z,6.20
2024-02-08T10:21:58.573Z,6.53
2024-02-08T10:24:45.521Z,6.68
2024-02-08T10:27:20.516Z,5.00
2024-02-08T10:32:21.556Z,5.72
2024-02-08T10:34:53.722Z,3.88
2024-02-08T10:37:39.073Z,3.70
2024-02-08T10:43:18.028Z,4.68
2024-02-08T10:45:51.316Z,3.42
2024-02-08T10:48:18.974Z,5.82
2024-02-08T10:50:51.137Z,4.80
2024-02-08T10:53:38.651Z,2.75
2024-02-08T10:56:16.090Z,6.28
2024-02-08T10:59:04.520Z,5.65
2024-02-08T11:01:55.366Z,4.43
2024-02-08T11:04:30.053Z,6.95
2024-02-08T11:09:37.685Z,3.33
2024-02-08T11:12:10.525Z,4.05
2024-02-08T11:14:42.656Z,5.70
2024-02-08T11:17:21.653Z,5.00
2024-02-08T11:19:51.088Z,6.25
2024-02-08T11:22:36.282Z,4.32
2024-02-08T11:25:20.270Z,3.10
2024-02-08T11:27:53.644Z,5.63
2024-02-08T11:30:34.639Z,5.75
2024-02-08T11:33:03.812Z,4.97
2024-02-08T11:35:32.172Z,4.30
2024-02-08T11:38:10.801Z,4.65
2024-02-08T11:40:38.107Z,5.93
2024-02-08T11:43:09.204Z,7.07
2024-02-08T11:45:37.304Z,8.27
2024-02-08T11:48:10.277Z,7.13
2024-02-08T11:50:41.192Z,6.55
2024-02-08T11:53:08.243Z,4.65
2024-02-08T11:55:35.339Z,6.97
2024-02-08T11:58:08.639Z,7.60
2024-02-08T12:00:50.230Z,8.00
2024-02-08T12:03:18.062Z,8.60
2024-02-08T12:05:54.383Z,5.25
2024-02-08T12:08:33.811Z,6.03
2024-02-08T12:11:04.963Z,6.78
2024-02-08T12:13:40.787Z,5.63
2024-02-08T12:16:08.395Z,5.40
2024-02-08T12:18:37.116Z,5.97
2024-02-08T12:21:12.055Z,6.38
2024-02-08T12:23:41.933Z,7.10
2024-02-08T12:26:12.305Z,8.40
2024-02-08T12:28:44.304Z,3.85
2024-02-08T12:31:20.060Z,3.35
2024-02-08T12:33:54.812Z,7.57
2024-02-08T12:36:26.502Z,7.68
2024-02-08T12:38:57.334Z,4.45
2024-02-08T12:41:25.433Z,6.80
2024-02-08T12:43:54.896Z,4.70
2024-02-08T12:46:22.806Z,5.13
2024-02-08T12:48:50.517Z,4.55
2024-02-08T12:51:19.286Z,4.10
2024-02-08T12:53:46.687Z,6.50
2024-02-08T12:56:15.973Z,4.50
2024-02-08T12:58:44.145Z,4.90
2024-02-08T13:01:16.408Z,7.47
2024-02-08T13:03:43.791Z,3.55
2024-02-08T13:06:15.736Z,7.30
2024-02-08T13:08:47.015Z,5.38
2024-02-08T13:11:22.158Z,8.70
2024-02-08T13:16:18.413Z,5.10
2024-02-08T13:18:54.175Z,4.22
2024-02-08T13:21:26.278Z,3.45
2024-02-08T13:23:57.031Z,6.97
2024-02-08T13:26:33.032Z,6.50
2024-02-08T13:29:03.970Z,6.35
2024-02-08T13:31:32.489Z,5.82
2024-02-08T13:34:02.509Z,4.15
2024-02-08T13:36:29.972Z,5.13
2024-02-08T13:38:57.081Z,7.00
2024-02-08T13:41:24.288Z,5.43
2024-02-08T13:43:52.883Z,4.45
2024-02-08T13:46:20.372Z,4.90
2024-02-08T13:48:50.629Z,5.43
2024-02-08T13:51:18.044Z,3.05
2024-02-08T13:53:46.611Z,3.70
2024-02-08T13:56:15.024Z,6.05
2024-02-08T13:58:42.438Z,7.18
2024-02-08T14:01:09.763Z,4.88
2024-02-08T14:03:37.163Z,5.80
2024-02-08T14:06:10.902Z,10.18
2024-02-08T14:08:44.263Z,6.65
2024-02-08T14:11:17.744Z,4.10
2024-02-08T14:13:45.854Z,4.10
2024-02-08T14:16:17.613Z,11.98
2024-02-08T14:18:50.915Z,5.82
2024-02-08T14:21:29.030Z,6.15
2024-02-08T14:24:02.502Z,12.85
2024-02-08T14:26:44.278Z,9.77
2024-02-08T14:29:11.487Z,7.30
2024-02-08T14:31:40.906Z,3.72
2024-02-08T14:34:11.278Z,6.95
2024-02-08T14:36:48.319Z,4.90
2024-02-08T14:39:28.979Z,4.43
2024-02-08T14:41:57.222Z,4.82
2024-02-08T14:44:33.099Z,7.03
2024-02-08T14:47:00.501Z,5.13
2024-02-08T14:49:30.581Z,5.65
2024-02-08T14:52:04.509Z,4.88
2024-02-08T14:54:32.724Z,5.25
2024-02-08T14:57:06.406Z,9.55
2024-02-08T15:00:06.942Z,12.43
2024-02-08T15:02:33.952Z,6.43
2024-02-08T15:05:02.638Z,7.47
2024-02-08T15:07:52.639Z,11.98
2024-02-08T15:10:23.059Z,11.27
2024-02-08T15:12:57.394Z,11.15
2024-02-08T15:15:32.512Z,7.03
2024-02-08T15:18:13.206Z,5.55
2024-02-08T15:20:57.427Z,5.45
2024-02-08T15:23:33.693Z,6.40
2024-02-08T15:26:14.460Z,6.38
2024-02-08T15:28:46.925Z,4.78
2024-02-08T15:31:23.220Z,24.55
2024-02-08T15:34:09.603Z,15.50
2024-02-08T15:36:51.801Z,6.63
2024-02-08T15:39:37.242Z,4.75
2024-02-08T15:42:18.831Z,5.47
2024-02-08T15:44:54.041Z,7.38
2024-02-08T15:47:22.182Z,7.35
2024-02-08T15:49:56.461Z,5.70
2024-02-08T15:52:29.944Z,10.25
2024-02-08T15:54:59.669Z,7.82
2024-02-08T15:57:31.500Z,15.05
2024-02-08T16:00:01.366Z,7.43
2024-02-08T16:02:36.042Z,6.93
2024-02-08T16:05:16.179Z,8.00
2024-02-08T16:07:44.267Z,11.73
2024-02-08T16:10:25.779Z,9.60
2024-02-08T16:13:06.596Z,8.73
2024-02-08T16:15:53.099Z,10.00
2024-02-08T16:18:27.924Z,5.00
2024-02-08T16:23:45.241Z,12.35
2024-02-08T16:26:14.361Z,7.07
2024-02-08T16:28:51.321Z,7.35
2024-02-08T16:31:19.355Z,7.80
2024-02-08T16:33:55.553Z,8.02
2024-02-08T16:36:30.775Z,7.72
2024-02-08T16:39:08.032Z,16.65
2024-02-08T16:41:49.345Z,11.20
2024-02-08T16:44:17.944Z,19.15
2024-02-08T16:46:55.095Z,15.50
2024-02-08T16:49:29.120Z,11.55
2024-02-08T16:51:57.195Z,21.03
2024-02-08T16:54:32.991Z,23.17
2024-02-08T16:57:05.241Z,26.90
2024-02-08T16:59:46.225Z,24.50
2024-02-08T17:02:28.118Z,22.65
2024-02-08T17:05:17.819Z,21.60
2024-02-08T17:07:45.334Z,27.38
2024-02-08T17:10:23.914Z,38.45
2024-02-08T17:13:01.231Z,39.20
2024-02-08T17:15:28.670Z,31.33
2024-02-08T17:18:07.192Z,27.80
2024-02-08T17:20:56.252Z,21.25
2024-02-08T17:23:42.824Z,17.10
2024-02-08T17:26:38.903Z,17.27
2024-02-08T17:29:21.254Z,20.75
2024-02-08T17:31:49.400Z,18.95
2024-02-08T17:34:24.085Z,22.13
2024-02-08T17:36:55.586Z,28.58
2024-02-08T17:39:26.509Z,35.00
2024-02-08T17:41:58.354Z,26.70
2024-02-08T17:44:31.346Z,19.17
2024-02-08T17:47:01.554Z,22.58
2024-02-08T17:49:31.236Z,19.52
2024-02-08T17:52:00.999Z,23.42
2024-02-08T17:54:33.173Z,26.08
2024-02-08T17:57:03.680Z,29.63
2024-02-08T17:59:32.702Z,38.15
2024-02-08T18:02:03.353Z,34.72
2024-02-08T18:04:31.406Z,36.20
2024-02-08T18:07:10.238Z,38.33
2024-02-08T18:09:43.675Z,34.90
2024-02-08T18:12:22.890Z,33.42
2024-02-08T18:14:52.539Z,37.15
2024-02-08T18:17:26.160Z,31.50
2024-02-08T18:19:53.727Z,33.08
2024-02-08T18:22:30.220Z,33.85
2024-02-08T18:24:59.548Z,34.20
2024-02-08T18:27:33.667Z,30.52
2024-02-08T18:30:06.185Z,34.83
2024-02-08T18:32:36.075Z,42.10
2024-02-08T18:35:06.368Z,38.20
2024-02-08T18:37:36.023Z,34.90
2024-02-08T18:40:09.496Z,31.45
2024-02-08T18:42:39.876Z,32.55
2024-02-08T18:45:17.683Z,20.15
2024-02-08T18:47:45.786Z,26.90
2024-02-08T18:50:14.295Z,19.52
2024-02-08T18:52:43.487Z,13.95
2024-02-08T18:55:11.321Z,14.48
2024-02-08T18:57:38.716Z,13.68
2024-02-08T19:00:14.998Z,12.52
2024-02-08T19:02:42.487Z,14.98
2024-02-08T19:05:10.852Z,17.60
2024-02-08T19:07:38.185Z,16.27
2024-02-08T19:10:08.405Z,15.30
2024-02-08T19:12:38.302Z,15.80
2024-02-08T19:15:07.928Z,21.17
2024-02-08T19:17:43.231Z,17.67
2024-02-08T19:20:20.056Z,52.40
2024-02-08T19:22:49.354Z,61.65
2024-02-08T19:25:22.902Z,59.17
2024-02-08T19:27:51.000Z,34.83
2024-02-08T19:30:18.251Z,34.30
2024-02-08T19:32:47.258Z,28.13
2024-02-08T19:35:21.390Z,30.88
2024-02-08T19:37:51.380Z,35.63
2024-02-08T19:40:22.750Z,28.77
2024-02-08T19:42:50.865Z,29.80
2024-02-08T19:45:24.502Z,35.15
2024-02-08T19:47:55.057Z,38.50
2024-02-08T19:50:22.784Z,39.60
2024-02-08T19:52:50.260Z,27.23
2024-02-08T19:55:30.152Z,31.27
2024-02-08T19:58:00.897Z,39.22
2024-02-08T20:00:31.187Z,31.38
2024-02-08T20:03:17.659Z,27.98
2024-02-08T20:05:48.592Z,36.45
2024-02-08T20:08:17.642Z,32.38
2024-02-08T20:10:47.772Z,31.08
2024-02-08T20:13:19.412Z,39.88
2024-02-08T20:15:49.151Z,40.05
2024-02-08T20:18:22.191Z,34.88
2024-02-08T20:20:49.401Z,43.70
2024-02-08T20:23:33.533Z,30.40
2024-02-08T20:26:02.104Z,30.35
2024-02-08T20:28:32.824Z,23.98
2024-02-08T20:31:00.154Z,19.63
2024-02-08T20:33:29.505Z,17.25
2024-02-08T20:36:02.209Z,15.95
2024-02-08T20:38:32.239Z,18.15
2024-02-08T20:40:59.269Z,17.83
2024-02-08T20:43:27.760Z,22.38
2024-02-08T20:45:55.820Z,22.40
2024-02-08T20:48:23.363Z,36.05
2024-02-08T20:50:52.251Z,23.27
2024-02-08T20:53:19.477Z,25.52
2024-02-08T20:55:49.210Z,23.35
2024-02-08T20:58:18.443Z,25.10
2024-02-08T21:00:48.019Z,21.58
2024-02-08T21:03:17.512Z,19.00
2024-02-08T21:05:50.255Z,20.70
2024-02-08T21:08:19.085Z,20.73
2024-02-08T21:10:49.487Z,21.10
2024-02-08T21:13:20.838Z,21.35
2024-02-08T21:15:50.983Z,23.95
2024-02-08T21:18:21.816Z,21.67
2024-02-08T21:20:54.283Z,23.60
2024-02-08T21:23:26.102Z,21.35
2024-02-08T21:25:54.555Z,25.92
2024-02-08T21:28:23.650Z,22.98
2024-02-08T21:30:51.201Z,28.38
2024-02-08T21:33:18.630Z,27.88
2024-02-08T21:35:48.745Z,30.05
2024-02-08T21:38:17.493Z,33.17
2024-02-08T21:40:47.569Z,30.17
2024-02-08T21:43:17.608Z,29.27
2024-02-08T21:45:47.514Z,30.33
2024-02-08T21:48:18.098Z,16.30
2024-02-08T21:50:50.269Z,23.33
2024-02-08T21:53:18.038Z,13.07
2024-02-08T21:55:46.838Z,14.18
2024-02-08T21:58:14.312Z,14.80
2024-02-08T22:00:43.603Z,13.63
2024-02-08T22:03:10.574Z,12.70
2024-02-08T22:05:38.095Z,14.20
2024-02-08T22:08:06.195Z,15.27
2024-02-08T22:10:35.894Z,13.57
2024-02-08T22:13:09.241Z,18.45
2024-02-08T22:15:36.630Z,22.52
2024-02-08T22:18:04.233Z,29.95
2024-02-08T22:20:31.822Z,20.13
2024-02-08T22:22:59.999Z,11.85
2024-02-08T22:25:27.281Z,17.83
2024-02-08T22:27:56.034Z,28.40
2024-02-08T22:30:24.684Z,26.33
2024-02-08T22:32:53.794Z,19.98
2024-02-08T22:35:21.098Z,21.60
2024-02-08T22:37:50.160Z,27.08
2024-02-08T22:40:20.181Z,37.00
2024-02-08T22:42:47.695Z,28.52
2024-02-08T22:45:15.133Z,25.27
2024-02-08T22:47:44.928Z,19.35
2024-02-08T22:50:13.693Z,20.02
2024-02-08T22:52:41.840Z,24.88
2024-02-08T22:55:12.381Z,29.33
2024-02-08T22:57:40.148Z,25.30
2024-02-08T23:00:27.070Z,30.90
2024-02-08T23:02:57.837Z,50.78
2024-02-08T23:05:32.110Z,36.72
2024-02-08T23:08:00.490Z,23.13
2024-02-08T23:10:29.980Z,31.05
2024-02-08T23:12:57.554Z,36.58
2024-02-08T23:15:26.731Z,28.08
2024-02-08T23:17:56.886Z,26.27
2024-02-08T23:20:25.766Z,28.33
2024-02-08T23:22:54.581Z,23.35
2024-02-08T23:25:24.866Z,22.05
2024-02-08T23:27:52.135Z,17.70
2024-02-08T23:30:20.375Z,26.98
2024-02-08T23:32:53.952Z,20.13
2024-02-08T23:35:23.715Z,17.38
2024-02-08T23:37:57.016Z,25.27
2024-02-08T23:40:27.882Z,13.85
2024-02-08T23:42:57.170Z,15.77
2024-02-08T23:45:24.230Z,16.65
2024-02-08T23:47:51.594Z,10.00
2024-02-08T23:50:18.952Z,12.85
2024-02-08T23:52:46.937Z,13.00
2024-02-08T23:55:15.541Z,15.02
2024-02-08T23:57:42.656Z,14.32
